createdAt,value
2022-10-09T00:00:15.361Z,102077.91
2022-10-09T00:00:45.805Z,102076.91
2022-10-09T00:01:16.223Z,102078.43
2022-10-09T00:01:46.648Z,102078.09
2022-10-09T00:02:17.158Z,102078.59
2022-10-09T00:02:47.921Z,102078.09
2022-10-09T00:03:18.497Z,102079.94
2022-10-09T00:03:48.921Z,102082.47
2022-10-09T00:04:19.348Z,102083.14
2022-10-09T00:04:49.849Z,102080.78
2022-10-09T00:05:20.308Z,102077.91
2022-10-09T00:05:50.673Z,102080.25
2022-10-09T00:06:21.101Z,102081.80
2022-10-09T00:06:51.520Z,102086.66
2022-10-09T00:07:21.962Z,102088.52
2022-10-09T00:07:52.385Z,102082.78
2022-10-09T00:08:22.827Z,102086.48
2022-10-09T00:08:53.235Z,102087.52
2022-10-09T00:09:23.654Z,102086.50
2022-10-09T00:09:54.072Z,102087.48
2022-10-09T00:10:24.499Z,102088.17
2022-10-09T00:10:54.926Z,102091.52
2022-10-09T00:11:25.380Z,102086.16
2022-10-09T00:11:55.816Z,102090.02
2022-10-09T00:12:26.429Z,102089.52
2022-10-09T00:12:56.853Z,102090.17
2022-10-09T00:13:27.279Z,102091.88
2022-10-09T00:13:57.698Z,102093.55
2022-10-09T00:14:28.120Z,102089.35
2022-10-09T00:14:58.548Z,102094.41
2022-10-09T00:15:28.970Z,102093.89
2022-10-09T00:15:59.387Z,102098.09
2022-10-09T00:16:29.915Z,102095.75
2022-10-09T00:17:00.365Z,102097.40
2022-10-09T00:17:30.870Z,102097.77
2022-10-09T00:18:01.294Z,102100.27
2022-10-09T00:18:31.716Z,102098.27
2022-10-09T00:19:02.143Z,102103.31
2022-10-09T00:19:32.573Z,102103.12
2022-10-09T00:20:02.996Z,102101.12
2022-10-09T00:20:33.424Z,102102.11
2022-10-09T00:21:03.844Z,102101.10
2022-10-09T00:21:34.267Z,102104.13
2022-10-09T00:22:04.700Z,102101.11
2022-10-09T00:22:35.151Z,102101.61
2022-10-09T00:23:05.590Z,102105.64
2022-10-09T00:23:36.013Z,102103.12
2022-10-09T00:24:06.415Z,102104.83
2022-10-09T00:24:36.854Z,102104.62
2022-10-09T00:25:07.281Z,102107.48
2022-10-09T00:25:37.703Z,102102.95
2022-10-09T00:26:08.124Z,102104.31
2022-10-09T00:26:38.571Z,102105.16
2022-10-09T00:27:08.992Z,102105.16
2022-10-09T00:27:39.439Z,102103.98
2022-10-09T00:28:09.928Z,102105.48
2022-10-09T00:28:40.361Z,102104.64
2022-10-09T00:29:10.753Z,102105.16
2022-10-09T00:29:41.186Z,102105.66
2022-10-09T00:30:11.608Z,102106.67
2022-10-09T00:30:42.159Z,102106.48
2022-10-09T00:31:12.550Z,102109.02
2022-10-09T00:31:42.977Z,102109.52
2022-10-09T00:32:13.398Z,102111.04
2022-10-09T00:32:43.838Z,102111.55
2022-10-09T00:33:14.266Z,102110.86
2022-10-09T00:33:44.700Z,102112.70
2022-10-09T00:34:15.120Z,102114.58
2022-10-09T00:34:45.566Z,102116.09
2022-10-09T00:35:15.982Z,102116.73
2022-10-09T00:35:46.418Z,102115.23
2022-10-09T00:36:16.864Z,102115.91
2022-10-09T00:36:47.275Z,102113.22
2022-10-09T00:37:17.702Z,102116.59
2022-10-09T00:37:48.140Z,102115.89
2022-10-09T00:38:18.563Z,102118.07
2022-10-09T00:38:49.000Z,102117.56
2022-10-09T00:39:19.410Z,102117.08
2022-10-09T00:39:49.828Z,102116.57
2022-10-09T00:40:20.265Z,102117.41
2022-10-09T00:40:50.682Z,102118.44
2022-10-09T00:41:21.104Z,102119.78
2022-10-09T00:41:51.542Z,102123.62
2022-10-09T00:42:21.971Z,102117.41
2022-10-09T00:42:52.433Z,102122.45
2022-10-09T00:43:22.850Z,102119.44
2022-10-09T00:43:53.273Z,102125.33
2022-10-09T00:44:23.696Z,102124.14
2022-10-09T00:44:54.119Z,102124.80
2022-10-09T00:45:24.540Z,102125.30
2022-10-09T00:45:55.010Z,102123.30
2022-10-09T00:46:25.487Z,102125.00
2022-10-09T00:46:55.919Z,102125.98
2022-10-09T00:47:26.350Z,102124.64
2022-10-09T00:47:56.791Z,102126.31
2022-10-09T00:48:27.214Z,102121.96
2022-10-09T00:48:57.636Z,102126.98
2022-10-09T00:49:28.084Z,102125.48
2022-10-09T00:49:58.501Z,102128.17
2022-10-09T00:50:28.937Z,102128.67
2022-10-09T00:50:59.359Z,102125.16
2022-10-09T00:51:29.784Z,102125.99
2022-10-09T00:52:00.205Z,102130.55
2022-10-09T00:52:30.633Z,102132.56
2022-10-09T00:53:01.067Z,102132.89
2022-10-09T00:53:31.491Z,102133.20
2022-10-09T00:54:01.945Z,102129.52
2022-10-09T00:54:32.347Z,102133.05
2022-10-09T00:55:02.770Z,102134.56
2022-10-09T00:55:33.217Z,102135.05
2022-10-09T00:56:03.651Z,102135.91
2022-10-09T00:56:34.073Z,102137.41
2022-10-09T00:57:04.766Z,102139.59
2022-10-09T00:57:35.188Z,102133.91
2022-10-09T00:58:05.633Z,102136.42
2022-10-09T00:58:36.064Z,102138.27
2022-10-09T00:59:06.471Z,102138.95
2022-10-09T00:59:36.892Z,102142.64
2022-10-09T01:00:07.324Z,102143.31
2022-10-09T01:00:37.737Z,102140.27
2022-10-09T01:01:08.203Z,102145.83
2022-10-09T01:01:38.704Z,102145.31
2022-10-09T01:02:09.161Z,102146.18
2022-10-09T01:02:39.685Z,102144.13
2022-10-09T01:03:10.073Z,102140.28
2022-10-09T01:03:40.502Z,102140.60
2022-10-09T01:04:10.935Z,102147.33
2022-10-09T01:04:41.356Z,102147.34
2022-10-09T01:05:11.777Z,102145.64
2022-10-09T01:05:42.202Z,102146.66
2022-10-09T01:06:12.626Z,102145.66
2022-10-09T01:06:43.062Z,102146.67
2022-10-09T01:07:13.497Z,102147.69
2022-10-09T01:07:43.931Z,102146.00
2022-10-09T01:08:14.396Z,102148.86
2022-10-09T01:08:44.832Z,102145.66
2022-10-09T01:09:15.276Z,102153.56
2022-10-09T01:09:45.679Z,102146.17
2022-10-09T01:10:16.101Z,102147.50
2022-10-09T01:10:46.528Z,102148.70
2022-10-09T01:11:16.960Z,102149.53
2022-10-09T01:11:47.383Z,102147.00
2022-10-09T01:12:17.810Z,102146.34
2022-10-09T01:12:48.682Z,102151.20
2022-10-09T01:13:19.376Z,102148.70
2022-10-09T01:13:49.800Z,102149.70
2022-10-09T01:14:20.232Z,102146.69
2022-10-09T01:14:50.660Z,102146.48
2022-10-09T01:15:21.084Z,102149.01
2022-10-09T01:15:51.553Z,102149.68
2022-10-09T01:16:24.047Z,102153.90
2022-10-09T01:16:54.546Z,102149.36
2022-10-09T01:17:24.966Z,102149.36
2022-10-09T01:17:55.398Z,102150.20
2022-10-09T01:18:25.842Z,102149.87
2022-10-09T01:18:56.261Z,102152.38
2022-10-09T01:19:26.683Z,102150.88
2022-10-09T01:19:57.111Z,102149.17
2022-10-09T01:20:27.531Z,102153.04
2022-10-09T01:20:57.963Z,102150.53
2022-10-09T01:21:28.398Z,102150.02
2022-10-09T01:21:58.843Z,102150.37
2022-10-09T01:22:29.281Z,102149.68
2022-10-09T01:22:59.700Z,102153.06
2022-10-09T01:23:30.136Z,102148.36
2022-10-09T01:24:00.579Z,102151.36
2022-10-09T01:24:31.073Z,102152.05
2022-10-09T01:25:01.421Z,102153.03
2022-10-09T01:25:31.848Z,102155.23
2022-10-09T01:26:02.275Z,102152.72
2022-10-09T01:26:32.704Z,102157.09
2022-10-09T01:27:03.118Z,102154.55
2022-10-09T01:27:33.544Z,102152.36
2022-10-09T01:28:04.015Z,102155.91
2022-10-09T01:28:34.447Z,102154.56
2022-10-09T01:29:04.842Z,102157.59
2022-10-09T01:29:35.268Z,102158.25
2022-10-09T01:30:05.696Z,102158.08
2022-10-09T01:30:36.196Z,102155.58
2022-10-09T01:31:06.708Z,102155.56
2022-10-09T01:31:37.099Z,102156.23
2022-10-09T01:32:07.516Z,102156.75
2022-10-09T01:32:37.937Z,102159.09
2022-10-09T01:33:08.367Z,102158.44
2022-10-09T01:33:38.890Z,102160.09
2022-10-09T01:34:09.311Z,102158.10
2022-10-09T01:34:39.736Z,102162.31
2022-10-09T01:35:10.153Z,102161.80
2022-10-09T01:35:40.575Z,102161.95
2022-10-09T01:36:11.006Z,102160.44
2022-10-09T01:36:41.432Z,102162.97
2022-10-09T01:37:11.849Z,102163.81
2022-10-09T01:37:42.276Z,102159.78
2022-10-09T01:38:12.698Z,102158.95
2022-10-09T01:38:43.140Z,102161.97
2022-10-09T01:39:13.574Z,102161.28
2022-10-09T01:39:44.034Z,102162.97
2022-10-09T01:40:14.436Z,102165.83
2022-10-09T01:40:44.861Z,102165.81
2022-10-09T01:41:15.286Z,102164.32
2022-10-09T01:41:45.707Z,102166.16
2022-10-09T01:42:16.133Z,102162.31
2022-10-09T01:42:47.004Z,102167.01
2022-10-09T01:43:17.681Z,102167.17
2022-10-09T01:43:48.204Z,102168.66
2022-10-09T01:44:18.655Z,102167.17
2022-10-09T01:44:49.070Z,102167.34
2022-10-09T01:45:19.494Z,102171.72
2022-10-09T01:45:49.919Z,102175.92
2022-10-09T01:46:20.437Z,102175.73
2022-10-09T01:46:50.848Z,102173.41
2022-10-09T01:47:21.286Z,102173.91
2022-10-09T01:47:51.713Z,102173.23
2022-10-09T01:48:22.157Z,102176.58
2022-10-09T01:48:52.599Z,102177.09
2022-10-09T01:49:23.034Z,102178.59
2022-10-09T01:49:53.456Z,102179.78
2022-10-09T01:50:23.879Z,102179.46
2022-10-09T01:50:54.320Z,102178.78
2022-10-09T01:51:24.740Z,102180.29
2022-10-09T01:51:55.161Z,102177.09
2022-10-09T01:52:25.594Z,102181.78
2022-10-09T01:52:56.036Z,102179.78
2022-10-09T01:53:26.449Z,102178.95
2022-10-09T01:53:56.897Z,102180.28
2022-10-09T01:54:27.317Z,102178.28
2022-10-09T01:54:57.761Z,102181.98
2022-10-09T01:55:28.164Z,102181.97
2022-10-09T01:55:58.586Z,102182.92
2022-10-09T01:56:29.010Z,102185.12
2022-10-09T01:56:59.446Z,102183.45
2022-10-09T01:57:29.887Z,102182.25
2022-10-09T01:58:00.310Z,102182.64
2022-10-09T01:58:30.736Z,102181.79
2022-10-09T01:59:01.184Z,102183.98
2022-10-09T01:59:31.603Z,102177.05
2022-10-09T02:00:02.029Z,102177.44
2022-10-09T02:00:32.458Z,102177.94
2022-10-09T02:01:02.890Z,102173.69
2022-10-09T02:01:33.348Z,102177.27
2022-10-09T02:02:03.899Z,102180.30
2022-10-09T02:02:34.416Z,102177.94
2022-10-09T02:03:04.908Z,102179.44
2022-10-09T02:03:35.329Z,102179.79
2022-10-09T02:04:05.790Z,102177.44
2022-10-09T02:04:36.196Z,102181.14
2022-10-09T02:05:06.622Z,102178.28
2022-10-09T02:05:37.045Z,102180.91
2022-10-09T02:06:07.468Z,102179.23
2022-10-09T02:06:37.894Z,102181.14
2022-10-09T02:07:08.315Z,102182.46
2022-10-09T02:07:38.742Z,102185.48
2022-10-09T02:08:09.178Z,102178.77
2022-10-09T02:08:39.606Z,102181.30
2022-10-09T02:09:10.049Z,102180.45
2022-10-09T02:09:40.471Z,102178.05
2022-10-09T02:10:10.911Z,102183.66
2022-10-09T02:10:41.315Z,102182.59
2022-10-09T02:11:11.744Z,102181.08
2022-10-09T02:11:42.179Z,102181.61
2022-10-09T02:12:12.600Z,102182.42
2022-10-09T02:12:43.035Z,102185.47
2022-10-09T02:13:13.466Z,102185.12
2022-10-09T02:13:43.879Z,102180.91
2022-10-09T02:14:14.332Z,102181.77
2022-10-09T02:14:44.763Z,102180.76
2022-10-09T02:15:15.177Z,102186.62
2022-10-09T02:15:45.669Z,102184.78
2022-10-09T02:16:16.088Z,102186.31
2022-10-09T02:16:46.474Z,102184.64
2022-10-09T02:17:16.898Z,102184.63
2022-10-09T02:17:47.336Z,102183.95
2022-10-09T02:18:17.753Z,102190.00
2022-10-09T02:18:48.177Z,102189.66
2022-10-09T02:19:18.619Z,102189.66
2022-10-09T02:19:49.045Z,102190.16
2022-10-09T02:20:19.465Z,102190.17
2022-10-09T02:20:49.911Z,102190.69
2022-10-09T02:21:20.337Z,102189.68
2022-10-09T02:21:54.396Z,102191.69
2022-10-09T02:22:25.051Z,102190.50
2022-10-09T02:22:55.474Z,102192.84
2022-10-09T02:23:25.903Z,102189.00
2022-10-09T02:23:56.331Z,102190.33
2022-10-09T02:24:26.762Z,102188.47
2022-10-09T02:24:57.190Z,102190.51
2022-10-09T02:25:27.643Z,102192.35
2022-10-09T02:25:58.050Z,102194.19
2022-10-09T02:26:28.467Z,102188.83
2022-10-09T02:26:58.899Z,102190.87
2022-10-09T02:27:29.335Z,102189.34
2022-10-09T02:27:59.753Z,102191.70
2022-10-09T02:28:30.216Z,102193.53
2022-10-09T02:29:00.641Z,102188.32
2022-10-09T02:29:31.094Z,102193.86
2022-10-09T02:30:01.508Z,102196.56
2022-10-09T02:30:31.934Z,102195.05
2022-10-09T02:31:02.456Z,102195.88
2022-10-09T02:31:32.895Z,102197.22
2022-10-09T02:32:03.299Z,102197.91
2022-10-09T02:32:33.734Z,102198.56
2022-10-09T02:33:04.158Z,102197.25
2022-10-09T02:33:34.585Z,102195.89
2022-10-09T02:34:05.005Z,102198.92
2022-10-09T02:34:35.442Z,102195.55
2022-10-09T02:35:05.866Z,102196.88
2022-10-09T02:35:36.285Z,102196.23
2022-10-09T02:36:06.711Z,102198.56
2022-10-09T02:36:37.130Z,102199.42
2022-10-09T02:37:07.560Z,102195.39
2022-10-09T02:37:37.987Z,102194.55
2022-10-09T02:38:08.409Z,102195.54
2022-10-09T02:38:38.836Z,102197.23
2022-10-09T02:39:09.279Z,102198.25
2022-10-09T02:39:39.734Z,102196.73
2022-10-09T02:40:10.978Z,102198.40
2022-10-09T02:40:41.595Z,102198.24
2022-10-09T02:41:11.942Z,102198.07
2022-10-09T02:41:42.371Z,102195.71
2022-10-09T02:42:12.793Z,102201.09
2022-10-09T02:42:43.221Z,102194.05
2022-10-09T02:43:13.649Z,102196.88
2022-10-09T02:43:44.082Z,102196.74
2022-10-09T02:44:14.517Z,102201.44
2022-10-09T02:44:44.966Z,102202.45
2022-10-09T02:45:15.393Z,102201.75
2022-10-09T02:45:45.826Z,102198.06
2022-10-09T02:46:16.274Z,102197.58
2022-10-09T02:46:46.775Z,102200.09
2022-10-09T02:47:17.163Z,102201.43
2022-10-09T02:47:47.584Z,102202.95
2022-10-09T02:48:18.012Z,102199.59
2022-10-09T02:48:48.437Z,102202.78
2022-10-09T02:49:18.877Z,102199.23
2022-10-09T02:49:49.333Z,102202.94
2022-10-09T02:50:19.754Z,102203.79
2022-10-09T02:50:50.183Z,102202.43
2022-10-09T02:51:20.635Z,102204.29
2022-10-09T02:51:51.049Z,102202.61
2022-10-09T02:52:21.479Z,102200.76
2022-10-09T02:52:52.041Z,102206.14
2022-10-09T02:53:22.466Z,102200.41
2022-10-09T02:53:52.891Z,102199.93
2022-10-09T02:54:23.317Z,102197.23
2022-10-09T02:54:53.770Z,102200.61
2022-10-09T02:55:24.187Z,102199.91
2022-10-09T02:55:54.628Z,102200.26
2022-10-09T02:56:25.041Z,102203.61
2022-10-09T02:56:55.485Z,102200.08
2022-10-09T02:57:25.897Z,102201.78
2022-10-09T02:57:56.321Z,102202.27
2022-10-09T02:58:26.758Z,102203.30
2022-10-09T02:58:57.178Z,102202.45
2022-10-09T02:59:27.612Z,102202.45
2022-10-09T02:59:58.083Z,102202.29
2022-10-09T03:00:28.497Z,102204.30
2022-10-09T03:00:58.923Z,102204.30
2022-10-09T03:01:29.363Z,102203.12
2022-10-09T03:01:59.948Z,102203.97
2022-10-09T03:02:30.471Z,102205.81
2022-10-09T03:03:00.982Z,102203.12
2022-10-09T03:03:31.368Z,102205.14
2022-10-09T03:04:01.792Z,102202.11
2022-10-09T03:04:32.230Z,102204.45
2022-10-09T03:05:02.679Z,102204.78
2022-10-09T03:05:33.104Z,102204.45
2022-10-09T03:06:03.530Z,102203.95
2022-10-09T03:06:33.951Z,102205.81
2022-10-09T03:07:04.373Z,102204.46
2022-10-09T03:07:34.802Z,102203.80
2022-10-09T03:08:05.226Z,102205.62
2022-10-09T03:08:35.652Z,102199.92
2022-10-09T03:09:06.083Z,102201.42
2022-10-09T03:09:36.526Z,102203.77
2022-10-09T03:10:06.944Z,102200.59
2022-10-09T03:10:37.383Z,102204.62
2022-10-09T03:11:07.826Z,102205.48
2022-10-09T03:11:38.230Z,102204.81
2022-10-09T03:12:08.656Z,102208.31
2022-10-09T03:12:39.091Z,102205.81
2022-10-09T03:13:09.519Z,102209.67
2022-10-09T03:13:39.941Z,102207.48
2022-10-09T03:14:10.375Z,102210.67
2022-10-09T03:14:40.799Z,102209.32
2022-10-09T03:15:11.245Z,102209.99
2022-10-09T03:15:41.753Z,102207.47
2022-10-09T03:16:12.226Z,102211.02
2022-10-09T03:16:42.753Z,102209.32
2022-10-09T03:17:13.175Z,102210.33
2022-10-09T03:17:43.597Z,102211.02
2022-10-09T03:18:14.030Z,102211.52
2022-10-09T03:18:44.504Z,102210.50
2022-10-09T03:19:14.922Z,102211.69
2022-10-09T03:19:45.344Z,102209.49
2022-10-09T03:20:15.793Z,102208.48
2022-10-09T03:20:46.226Z,102210.50
2022-10-09T03:21:16.637Z,102211.69
2022-10-09T03:21:47.057Z,102210.02
2022-10-09T03:22:17.486Z,102210.02
2022-10-09T03:22:48.347Z,102209.01
2022-10-09T03:23:18.909Z,102212.20
2022-10-09T03:23:49.721Z,102210.19
2022-10-09T03:24:20.129Z,102209.83
2022-10-09T03:24:50.560Z,102211.68
2022-10-09T03:25:21.008Z,102214.70
2022-10-09T03:25:51.429Z,102212.69
2022-10-09T03:26:21.870Z,102213.88
2022-10-09T03:26:52.280Z,102208.99
2022-10-09T03:27:22.712Z,102211.34
2022-10-09T03:27:53.130Z,102211.34
2022-10-09T03:28:23.671Z,102212.84
2022-10-09T03:28:54.177Z,102209.17
2022-10-09T03:29:24.587Z,102208.83
2022-10-09T03:29:55.016Z,102212.18
2022-10-09T03:30:25.466Z,102214.22
2022-10-09T03:30:55.982Z,102210.85
2022-10-09T03:31:51.273Z,102210.34
2022-10-09T03:32:01.751Z,102210.69
2022-10-09T03:32:32.217Z,102210.36
2022-10-09T03:33:02.614Z,102206.81
2022-10-09T03:33:33.042Z,102210.33
2022-10-09T03:34:03.469Z,102208.33
2022-10-09T03:34:33.895Z,102209.66
2022-10-09T03:35:04.336Z,102207.63
2022-10-09T03:35:34.762Z,102210.01
2022-10-09T03:36:05.190Z,102209.34
2022-10-09T03:36:35.614Z,102209.00
2022-10-09T03:37:06.038Z,102208.31
2022-10-09T03:37:36.467Z,102213.19
2022-10-09T03:38:06.898Z,102212.36
2022-10-09T03:38:37.326Z,102212.87
2022-10-09T03:39:07.748Z,102210.02
2022-10-09T03:39:38.184Z,102213.38
2022-10-09T03:40:08.614Z,102212.70
2022-10-09T03:40:39.052Z,102215.23
2022-10-09T03:41:09.497Z,102218.42
2022-10-09T03:41:39.941Z,102215.05
2022-10-09T03:42:10.349Z,102219.25
2022-10-09T03:42:40.772Z,102220.25
2022-10-09T03:43:11.193Z,102216.23
2022-10-09T03:43:41.623Z,102218.91
2022-10-09T03:44:12.049Z,102218.23
2022-10-09T03:44:42.469Z,102220.61
2022-10-09T03:45:12.893Z,102219.40
2022-10-09T03:45:43.329Z,102218.59
2022-10-09T03:46:13.771Z,102217.89
2022-10-09T03:46:44.238Z,102220.77
2022-10-09T03:47:14.615Z,102222.61
2022-10-09T03:47:45.042Z,102222.95
2022-10-09T03:48:15.472Z,102219.59
2022-10-09T03:48:45.897Z,102222.29
2022-10-09T03:49:16.332Z,102219.92
2022-10-09T03:49:46.749Z,102220.58
2022-10-09T03:50:17.179Z,102221.26
2022-10-09T03:50:47.639Z,102218.25
2022-10-09T03:51:18.076Z,102221.58
2022-10-09T03:51:48.505Z,102221.78
2022-10-09T03:52:18.923Z,102223.95
2022-10-09T03:52:49.693Z,102223.45
2022-10-09T03:53:20.289Z,102222.44
2022-10-09T03:53:50.713Z,102220.43
2022-10-09T03:54:21.172Z,102223.78
2022-10-09T03:54:51.593Z,102223.95
2022-10-09T03:55:22.013Z,102223.45
2022-10-09T03:55:52.453Z,102224.27
2022-10-09T03:56:22.874Z,102225.64
2022-10-09T03:56:53.332Z,102228.16
2022-10-09T03:57:23.741Z,102225.62
2022-10-09T03:57:54.162Z,102227.66
2022-10-09T03:58:24.593Z,102224.80
2022-10-09T03:58:55.011Z,102232.67
2022-10-09T03:59:25.436Z,102225.79
2022-10-09T03:59:55.857Z,102227.83
2022-10-09T04:00:26.280Z,102228.83
2022-10-09T04:00:56.749Z,102229.33
2022-10-09T04:01:27.185Z,102232.20
2022-10-09T04:01:57.602Z,102232.36
2022-10-09T04:02:28.086Z,102234.19
2022-10-09T04:02:58.535Z,102232.68
2022-10-09T04:03:28.951Z,102239.23
2022-10-09T04:03:59.379Z,102235.39
2022-10-09T04:04:29.799Z,102234.20
2022-10-09T04:05:00.251Z,102240.27
2022-10-09T04:05:30.687Z,102235.20
2022-10-09T04:06:01.128Z,102232.67
2022-10-09T04:06:31.545Z,102236.39
2022-10-09T04:07:01.963Z,102233.87
2022-10-09T04:07:32.383Z,102233.36
2022-10-09T04:08:02.807Z,102232.00
2022-10-09T04:08:33.229Z,102228.66
2022-10-09T04:09:03.651Z,102230.50
2022-10-09T04:09:34.087Z,102227.48
2022-10-09T04:10:04.522Z,102229.84
2022-10-09T04:10:34.944Z,102233.38
2022-10-09T04:11:05.401Z,102233.02
2022-10-09T04:11:35.808Z,102235.89
2022-10-09T04:12:06.259Z,102233.03
2022-10-09T04:12:36.655Z,102232.52
2022-10-09T04:13:07.080Z,102231.00
2022-10-09T04:13:37.534Z,102233.20
2022-10-09T04:14:07.945Z,102229.98
2022-10-09T04:14:38.379Z,102233.02
2022-10-09T04:15:08.798Z,102235.88
2022-10-09T04:15:39.227Z,102234.70
2022-10-09T04:16:09.722Z,102236.56
2022-10-09T04:16:40.127Z,102238.57
2022-10-09T04:17:10.559Z,102240.74
2022-10-09T04:17:40.985Z,102239.06
2022-10-09T04:18:11.413Z,102240.25
2022-10-09T04:18:41.835Z,102241.77
2022-10-09T04:19:12.260Z,102241.59
2022-10-09T04:19:42.692Z,102242.09
2022-10-09T04:20:13.150Z,102245.12
2022-10-09T04:20:43.588Z,102244.12
2022-10-09T04:21:14.027Z,102246.97
2022-10-09T04:21:44.449Z,102244.78
2022-10-09T04:22:14.890Z,102245.11
2022-10-09T04:22:45.332Z,102245.46
2022-10-09T04:23:15.740Z,102248.16
2022-10-09T04:23:46.161Z,102248.16
2022-10-09T04:24:16.591Z,102246.97
2022-10-09T04:24:47.005Z,102246.82
2022-10-09T04:25:17.426Z,102247.81
2022-10-09T04:25:47.848Z,102249.51
2022-10-09T04:26:18.319Z,102250.35
2022-10-09T04:26:48.743Z,102250.02
2022-10-09T04:27:19.191Z,102253.69
2022-10-09T04:27:49.591Z,102248.81
2022-10-09T04:28:20.064Z,102253.34
2022-10-09T04:28:50.551Z,102257.55
2022-10-09T04:29:20.995Z,102257.89
2022-10-09T04:29:51.413Z,102254.70
2022-10-09T04:30:21.863Z,102253.55
2022-10-09T04:30:52.287Z,102254.39
2022-10-09T04:31:22.811Z,102252.86
2022-10-09T04:31:53.256Z,102259.08
2022-10-09T04:32:23.669Z,102252.36
2022-10-09T04:32:54.091Z,102254.39
2022-10-09T04:33:24.514Z,102256.05
2022-10-09T04:33:54.945Z,102255.88
2022-10-09T04:34:25.368Z,102256.40
2022-10-09T04:34:55.792Z,102258.23
2022-10-09T04:35:26.213Z,102260.44
2022-10-09T04:35:56.646Z,102257.89
2022-10-09T04:36:27.083Z,102259.23
2022-10-09T04:36:57.505Z,102253.86
2022-10-09T04:37:27.929Z,102260.42
2022-10-09T04:37:58.348Z,102258.06
2022-10-09T04:38:28.791Z,102255.88
2022-10-09T04:38:59.229Z,102258.05
2022-10-09T04:39:29.645Z,102258.91
2022-10-09T04:40:00.089Z,102258.41
2022-10-09T04:40:30.499Z,102257.91
2022-10-09T04:41:00.934Z,102257.39
2022-10-09T04:41:34.736Z,102255.56
2022-10-09T04:42:06.692Z,102261.77
2022-10-09T04:42:37.137Z,102259.25
2022-10-09T04:43:07.536Z,102261.41
2022-10-09T04:43:37.963Z,102259.06
2022-10-09T04:44:08.385Z,102257.06
2022-10-09T04:44:38.817Z,102256.71
2022-10-09T04:45:09.235Z,102261.59
2022-10-09T04:45:39.719Z,102259.23
2022-10-09T04:46:10.164Z,102259.73
2022-10-09T04:46:40.552Z,102257.91
2022-10-09T04:47:11.536Z,102257.56
2022-10-09T04:47:41.982Z,102259.58
2022-10-09T04:48:12.404Z,102257.41
2022-10-09T04:48:42.835Z,102255.03
2022-10-09T04:49:13.267Z,102258.42
2022-10-09T04:49:43.692Z,102259.08
2022-10-09T04:50:14.118Z,102259.76
2022-10-09T04:50:44.536Z,102255.90
2022-10-09T04:51:14.969Z,102260.92
2022-10-09T04:51:45.427Z,102255.72
2022-10-09T04:52:15.850Z,102257.38
2022-10-09T04:52:46.626Z,102255.70
2022-10-09T04:53:17.215Z,102259.41
2022-10-09T04:53:47.652Z,102255.88
2022-10-09T04:54:18.073Z,102260.59
2022-10-09T04:54:48.495Z,102257.90
2022-10-09T04:55:18.923Z,102253.53
2022-10-09T04:55:49.344Z,102256.05
2022-10-09T04:56:19.769Z,102256.38
2022-10-09T04:56:50.223Z,102257.91
2022-10-09T04:57:20.653Z,102256.72
2022-10-09T04:57:51.145Z,102259.23
2022-10-09T04:58:21.552Z,102256.21
2022-10-09T04:58:51.985Z,102256.72
2022-10-09T04:59:22.421Z,102258.89
2022-10-09T04:59:52.847Z,102255.70
2022-10-09T05:00:23.267Z,102259.23
2022-10-09T05:00:53.756Z,102263.62
2022-10-09T05:01:24.197Z,102258.55
2022-10-09T05:01:54.614Z,102263.61
2022-10-09T05:02:25.131Z,102261.92
2022-10-09T05:02:55.515Z,102263.09
2022-10-09T05:03:25.945Z,102259.25
2022-10-09T05:03:56.368Z,102260.09
2022-10-09T05:04:26.790Z,102258.75
2022-10-09T05:04:57.213Z,102260.23
2022-10-09T05:05:27.638Z,102260.59
2022-10-09T05:05:58.076Z,102259.07
2022-10-09T05:06:28.509Z,102259.75
2022-10-09T05:06:58.950Z,102259.41
2022-10-09T05:07:29.375Z,102260.91
2022-10-09T05:07:59.808Z,102257.40
2022-10-09T05:08:30.245Z,102257.73
2022-10-09T05:09:00.662Z,102257.21
2022-10-09T05:09:31.089Z,102260.58
2022-10-09T05:10:01.540Z,102259.56
2022-10-09T05:10:31.950Z,102258.56
2022-10-09T05:11:02.375Z,102264.77
2022-10-09T05:11:32.797Z,102260.75
2022-10-09T05:12:03.251Z,102258.40
2022-10-09T05:12:33.687Z,102257.89
2022-10-09T05:13:04.131Z,102263.45
2022-10-09T05:13:34.552Z,102263.45
2022-10-09T05:14:04.967Z,102264.61
2022-10-09T05:14:35.400Z,102266.80
2022-10-09T05:15:05.840Z,102263.44
2022-10-09T05:15:36.244Z,102264.12
2022-10-09T05:16:06.721Z,102264.27
2022-10-09T05:17:00.859Z,102261.24
2022-10-09T05:17:14.556Z,102262.95
2022-10-09T05:17:45.459Z,102265.44
2022-10-09T05:18:15.809Z,102265.12
2022-10-09T05:18:46.235Z,102265.12
2022-10-09T05:19:16.655Z,102265.62
2022-10-09T05:19:47.082Z,102264.94
2022-10-09T05:20:17.503Z,102265.97
2022-10-09T05:20:47.939Z,102265.44
2022-10-09T05:21:18.357Z,102267.97
2022-10-09T05:21:48.775Z,102265.11
2022-10-09T05:22:19.222Z,102260.77
2022-10-09T05:22:49.944Z,102265.28
2022-10-09T05:23:20.455Z,102268.14
2022-10-09T05:23:50.877Z,102269.99
2022-10-09T05:24:21.302Z,102268.47
2022-10-09T05:24:51.721Z,102272.34
2022-10-09T05:25:22.144Z,102268.47
2022-10-09T05:25:52.569Z,102272.69
2022-10-09T05:26:23.003Z,102272.69
2022-10-09T05:26:53.419Z,102272.84
2022-10-09T05:27:23.861Z,102271.34
2022-10-09T05:27:54.294Z,102271.00
2022-10-09T05:28:24.829Z,102269.98
2022-10-09T05:28:55.236Z,102274.02
2022-10-09T05:29:25.690Z,102274.52
2022-10-09T05:29:56.115Z,102278.38
2022-10-09T05:30:26.535Z,102275.70
2022-10-09T05:30:56.959Z,102283.92
2022-10-09T05:31:27.519Z,102280.56
2022-10-09T05:31:57.932Z,102282.77
2022-10-09T05:32:28.326Z,102285.44
2022-10-09T05:32:58.750Z,102284.45
2022-10-09T05:33:29.175Z,102283.94
2022-10-09T05:33:59.610Z,102287.30
2022-10-09T05:34:30.044Z,102283.28
2022-10-09T05:35:00.472Z,102286.62
2022-10-09T05:35:30.902Z,102288.30
2022-10-09T05:36:01.325Z,102285.11
2022-10-09T05:36:31.775Z,102287.12
2022-10-09T05:37:02.180Z,102287.81
2022-10-09T05:37:32.627Z,102287.30
2022-10-09T05:38:03.051Z,102288.12
2022-10-09T05:38:33.476Z,102288.16
2022-10-09T05:39:03.900Z,102290.34
2022-10-09T05:39:34.364Z,102289.48
2022-10-09T05:40:04.802Z,102286.64
2022-10-09T05:40:35.216Z,102289.83
2022-10-09T05:41:05.638Z,102287.47
2022-10-09T05:41:36.064Z,102288.14
2022-10-09T05:42:06.493Z,102290.50
2022-10-09T05:42:36.948Z,102286.30
2022-10-09T05:43:07.376Z,102288.99
2022-10-09T05:43:37.816Z,102287.48
2022-10-09T05:44:08.229Z,102290.33
2022-10-09T05:44:38.645Z,102287.30
2022-10-09T05:45:09.066Z,102289.14
2022-10-09T05:45:39.578Z,102291.16
2022-10-09T05:46:10.013Z,102291.34
2022-10-09T05:46:40.415Z,102291.17
2022-10-09T05:47:10.851Z,102293.00
2022-10-09T05:47:41.298Z,102295.70